LICA/SUF METAR and TAF weather

Enter ICAO airport designator
Station Type Date Time Source
LICA METAR 2019/06/16 12:50 UTC NOAA

LICA 161250Z 26014KT 9999 FEW020 27/21 Q1015


Station Type Date Time Source
LICA Decoded METAR 2019/06/16 12:50 UTC NOAA

Lamezia Terme, Italy (LICA) 38-54N 016-15E
Jun 16, 2019 - 08:50 AM EDT / 2019.06.16 1250 UTC
Wind: from the W (260 degrees) at 16 MPH (14 KT):0
Visibility: greater than 7 mile(s):0
Sky conditions: mostly clear
Temperature: 80 F (27 C)
Dew Point: 69 F (21 C)
Relative Humidity: 69%
Pressure (altimeter): 29.97 in. Hg (1015 hPa)
ob: LICA 161250Z 26014KT 9999 FEW020 27/21 Q1015
cycle: 13

Station Type Date Time Source
LICA TAF 2019/06/16 12:21 UTC NOAA

TAF LICA 161100Z 1612/1712 27012KT 9999 SCT020
BECMG 1616/1618 VRB05KT
BECMG 1708/1710 27012KT

Example: see airport list